KBTV

Burlington International Airport

Burlington, Vermont, USA
KBTV 140056Z 1401/1424 17006KT P6SM BKN050 TEMPO 1401/1405 OVC025 FM141300 18012G20KT P6SM BKN040 FM142000 18013G21KT P6SM VCSH OVC030
Issued Valid From Valid To
Dec-14 @ 00:56 UTC
(2 hours ago)
Dec-14 @ 01:00 UTC
(2 hours ago)
Dec-15 @ 00:00 UTC
(in 21 hours)
Dec-14 @ 01:00 to Dec-14 @ 13:00
KBTV 140056Z 1401/1424 17006KT P6SM BKN050
Wind Visibility Clouds
170° at 6 knots Greater than 6 miles
  • Broken at 5,000' AGL
Temporary Dec-14 @ 01:00 to Dec-14 @ 05:00
TEMPO 1401/1405 OVC025
Clouds
  • Overcast at 2,500' AGL
From Dec-14 @ 13:00 to Dec-14 @ 20:00
FM141300 18012G20KT P6SM BKN040
Wind Visibility Clouds
180° at 12 knots
 Gusting to 20 knots
Greater than 6 miles
  • Broken at 4,000' AGL
From Dec-14 @ 20:00 to Dec-15 @ 00:00
FM142000 18013G21KT P6SM VCSH OVC030
Wind Visibility Clouds
180° at 13 knots
 Gusting to 21 knots
Greater than 6 miles
  • Overcast at 3,000' AGL
KBTV 140056Z 1401/1424 17006KT P6SM BKN050 TEMPO 1401/1405 OVC025 FM141300 18012G20KT P6SM BKN040 FM142000 18013G21KT P6SM VCSH OVC030
Issued Dec-14 @ 00:56 UTC
(2 hours ago)
Valid From Dec-14 @ 01:00 UTC
(2 hours ago)
Valid To Dec-15 @ 00:00 UTC
(in 21 hours)
Dec-14 @ 01:00 - Dec-14 @ 13:00
Wind Visibility
170° at 6 knots Greater than 6 miles
Clouds
  • Broken at 5,000' AGL
Temporary Dec-14 @ 01:00 - Dec-14 @ 05:00
Clouds
  • Overcast at 2,500' AGL
From Dec-14 @ 13:00 - Dec-14 @ 20:00
Wind Visibility
180° at 12 knots
 Gusting to 20 knots
Greater than 6 miles
Clouds
  • Broken at 4,000' AGL
From Dec-14 @ 20:00 - Dec-15 @ 00:00
Wind Visibility
180° at 13 knots
 Gusting to 21 knots
Greater than 6 miles
Clouds
  • Overcast at 3,000' AGL